Time;durP1;ratioP1;P1;durP2;ratioP2;P2;SDS_P1;SDS_P2;PMS_P1;PMS_P2;Temp;Humidity;BMP_temperature;BMP_pressure;BME280_temperature;BME280_humidity;BME280_pressure;Samples;Min_cycle;Max_cycle;Signal;HPM_P1;HPM_P2
2024/02/17 00:01:31;;;;;;;;;;;;;;;-1.17;100.00;98120.52;110394;1240;69168;-61
2024/02/17 00:04:00;;;;;;;;;;;;;;;-1.18;100.00;98119.00;110470;1241;68726;-61
2024/02/17 00:06:29;;;;;;;;;;;;;;;-1.19;100.00;98120.73;110416;1241;59682;-61
2024/02/17 00:08:58;;;;;;;;;;;;;;;-1.21;100.00;98119.88;110467;1244;59724;-60
2024/02/17 00:11:27;;;;;;;;;;;;;;;-1.22;100.00;98118.54;110418;1241;71970;-61
2024/02/17 00:13:55;;;;;;;;;;;;;;;-1.24;100.00;98116.17;110461;1242;70094;-62
2024/02/17 00:16:24;;;;;;;;;;;;;;;-1.26;100.00;98114.31;110382;1241;69872;-61
2024/02/17 00:18:53;;;;;;;;;;;;;;;-1.28;100.00;98115.38;110483;1238;59941;-61
2024/02/17 00:21:22;;;;;;;;;;;;;;;-1.29;100.00;98114.20;110373;1241;59685;-60
2024/02/17 00:23:51;;;;;;;;;;;;;;;-1.31;100.00;98116.27;110417;1243;71953;-61
2024/02/17 00:26:19;;;;;;;;;;;;;;;-1.34;100.00;98118.55;110357;1241;69236;-61
2024/02/17 00:28:51;;;;;;;;;;;;;;;-1.36;100.00;98118.05;110358;1238;68404;-60
2024/02/17 00:31:20;;;;;;;;;;;;;;;-1.38;100.00;98113.47;110385;1238;59728;-61
2024/02/17 00:33:49;;;;;;;;;;;;;;;-1.40;100.00;98114.86;110483;1241;59633;-61
2024/02/17 00:36:18;;;;;;;;;;;;;;;-1.43;100.00;98112.33;110441;1240;71353;-61
2024/02/17 00:38:47;;;;;;;;;;;;;;;-1.45;100.00;98112.02;110394;1243;69077;-61
2024/02/17 00:41:16;;;;;;;;;;;;;;;-1.46;100.00;98111.36;110364;1243;69281;-61
2024/02/17 00:43:45;;;;;;;;;;;;;;;-1.49;100.00;98111.39;110359;1241;59693;-61
2024/02/17 00:46:14;;;;;;;;;;;;;;;-1.51;100.00;98113.31;110450;1241;59691;-61
2024/02/17 00:48:43;;;;;;;;;;;;;;;-1.54;100.00;98120.00;110379;1241;71957;-61
2024/02/17 00:51:13;;;;;;;;;;;;;;;-1.57;100.00;98116.98;110409;1239;69223;-61
2024/02/17 00:53:45;;;;;;;;;;;;;;;-1.62;100.00;98119.60;110326;1241;69386;-61
2024/02/17 00:56:14;;;;;;;;;;;;;;;-1.63;100.00;98119.61;110342;1241;59679;-61
2024/02/17 00:58:43;;;;;;;;;;;;;;;-1.64;100.00;98117.73;110399;1241;59740;-61
2024/02/17 01:01:12;;;;;;;;;;;;;;;-1.65;100.00;98117.41;110413;1241;70735;-61
2024/02/17 01:03:53;;;;;;;;;;;;;;;-1.67;100.00;98122.55;110423;1248;69805;-61
2024/02/17 01:06:23;;;;;;;;;;;;;;;-1.67;100.00;98121.19;110306;1239;68392;-61
2024/02/17 01:08:52;;;;;;;;;;;;;;;-1.68;100.00;98124.63;110366;1242;59712;-61
2024/02/17 01:11:21;;;;;;;;;;;;;;;-1.71;100.00;98122.29;110469;1242;59734;-61
2024/02/17 01:13:50;;;;;;;;;;;;;;;-1.73;100.00;98123.31;110515;1241;71395;-61
2024/02/17 01:16:19;;;;;;;;;;;;;;;-1.76;100.00;98125.59;110388;1241;68620;-61
2024/02/17 01:18:48;;;;;;;;;;;;;;;-1.78;100.00;98124.42;110437;1241;69762;-61
2024/02/17 01:21:18;;;;;;;;;;;;;;;-1.80;100.00;98123.92;110388;1241;59793;-61
2024/02/17 01:23:47;;;;;;;;;;;;;;;-1.82;100.00;98121.38;110437;1241;59725;-61
2024/02/17 01:26:16;;;;;;;;;;;;;;;-1.85;100.00;98122.11;110455;1241;71201;-61
2024/02/17 01:28:47;;;;;;;;;;;;;;;-1.88;100.00;98122.30;110428;1241;69126;-61
2024/02/17 01:31:16;;;;;;;;;;;;;;;-1.87;100.00;98122.13;110409;1241;69788;-61
2024/02/17 01:33:49;;;;;;;;;;;;;;;-1.88;100.00;98124.54;110354;1241;59674;-61
2024/02/17 01:36:19;;;;;;;;;;;;;;;-1.89;100.00;98122.84;110346;1238;59699;-60
2024/02/17 01:38:48;;;;;;;;;;;;;;;-1.90;100.00;98122.84;110420;1241;72035;-60
2024/02/17 01:41:17;;;;;;;;;;;;;;;-1.92;100.00;98122.52;110415;1242;68455;-60
2024/02/17 01:43:46;;;;;;;;;;;;;;;-1.98;100.00;98120.72;110356;1238;69686;-61
2024/02/17 01:46:15;;;;;;;;;;;;;;;-2.03;100.00;98120.09;110433;1238;60090;-61
2024/02/17 01:48:44;;;;;;;;;;;;;;;-2.07;100.00;98120.50;110481;1239;59750;-60
2024/02/17 01:51:13;;;;;;;;;;;;;;;-2.08;100.00;98121.00;110506;1240;70823;-61
2024/02/17 01:53:42;;;;;;;;;;;;;;;-2.09;100.00;98119.45;110396;1241;69102;-60
2024/02/17 01:56:11;;;;;;;;;;;;;;;-2.09;100.00;98117.76;110406;1238;69700;-61
2024/02/17 01:58:40;;;;;;;;;;;;;;;-2.10;100.00;98117.09;110366;1238;59719;-61
2024/02/17 02:01:10;;;;;;;;;;;;;;;-2.11;100.00;98116.93;110318;1241;59698;-61
2024/02/17 02:03:39;;;;;;;;;;;;;;;-2.12;100.00;98117.80;110418;1241;71629;-60
2024/02/17 02:06:08;;;;;;;;;;;;;;;-2.14;100.00;98119.20;110341;1238;68793;-61
2024/02/17 02:08:38;;;;;;;;;;;;;;;-2.18;100.00;98116.33;110399;1241;69559;-60
2024/02/17 02:11:07;;;;;;;;;;;;;;;-2.26;100.00;98117.79;110408;1238;59711;-60
2024/02/17 02:13:36;;;;;;;;;;;;;;;-2.34;100.00;98116.67;110546;1241;59683;-61
2024/02/17 02:16:05;;;;;;;;;;;;;;;-2.39;100.00;98115.53;110524;1239;71908;-61
2024/02/17 02:18:34;;;;;;;;;;;;;;;-2.42;100.00;98116.74;110508;1238;69995;-61
2024/02/17 02:21:06;;;;;;;;;;;;;;;-2.43;100.00;98113.36;110476;1238;69465;-60
2024/02/17 02:23:35;;;;;;;;;;;;;;;-2.46;100.00;98111.31;110469;1241;59702;-60
2024/02/17 02:26:04;;;;;;;;;;;;;;;-2.45;100.00;98113.19;110397;1241;60155;-60
2024/02/17 02:28:32;;;;;;;;;;;;;;;-2.44;100.00;98113.88;110388;1238;71246;-60
2024/02/17 02:31:01;;;;;;;;;;;;;;;-2.44;100.00;98112.35;110371;1239;69308;-60
2024/02/17 02:33:30;;;;;;;;;;;;;;;-2.46;100.00;98114.23;110336;1240;69266;-60
2024/02/17 02:35:59;;;;;;;;;;;;;;;-2.49;100.00;98112.72;110472;1241;60057;-60
2024/02/17 02:38:28;;;;;;;;;;;;;;;-2.51;100.00;98113.43;110356;1241;59685;-60
2024/02/17 02:40:57;;;;;;;;;;;;;;;-2.54;100.00;98112.27;110276;1242;72218;-60
2024/02/17 02:43:26;;;;;;;;;;;;;;;-2.55;100.00;98109.35;110466;1241;68258;-60
2024/02/17 02:45:55;;;;;;;;;;;;;;;-2.57;100.00;98112.63;110362;1241;69148;-61
2024/02/17 02:48:23;;;;;;;;;;;;;;;-2.60;100.00;98111.11;110383;1248;59689;-61
2024/02/17 02:50:52;;;;;;;;;;;;;;;-2.64;100.00;98111.83;110483;1241;59753;-61
2024/02/17 02:53:21;;;;;;;;;;;;;;;-2.65;100.00;98111.33;110340;1241;71192;-61
2024/02/17 02:55:51;;;;;;;;;;;;;;;-2.65;100.00;98110.65;110361;1241;68689;-61
2024/02/17 02:58:20;;;;;;;;;;;;;;;-2.64;100.00;98116.80;110325;1241;69679;-61
2024/02/17 03:00:49;;;;;;;;;;;;;;;-2.66;100.00;98114.41;110376;1241;59681;-61
2024/02/17 03:03:18;;;;;;;;;;;;;;;-2.66;100.00;98115.10;110414;1241;59685;-61
2024/02/17 03:05:47;;;;;;;;;;;;;;;-2.66;100.00;98117.14;110276;1242;71290;-61
2024/02/17 03:08:17;;;;;;;;;;;;;;;-2.66;100.00;98122.09;110339;1242;69658;-61
2024/02/17 03:10:46;;;;;;;;;;;;;;;-2.67;100.00;98120.73;110425;1241;69513;-61
2024/02/17 03:13:15;;;;;;;;;;;;;;;-2.68;100.00;98117.84;110485;1240;59737;-61
2024/02/17 03:15:44;;;;;;;;;;;;;;;-2.68;100.00;98118.87;110380;1241;60093;-61
2024/02/17 03:18:13;;;;;;;;;;;;;;;-2.68;100.00;98122.96;110320;1241;71312;-61
2024/02/17 03:20:42;;;;;;;;;;;;;;;-2.69;100.00;98121.09;110439;1239;69900;-61
2024/02/17 03:23:10;;;;;;;;;;;;;;;-2.69;100.00;98125.19;110340;1241;69333;-61
2024/02/17 03:25:40;;;;;;;;;;;;;;;-2.72;100.00;98126.59;110341;1241;60163;-61
2024/02/17 03:28:09;;;;;;;;;;;;;;;-2.70;100.00;98125.20;110340;1240;59676;-61
2024/02/17 03:30:38;;;;;;;;;;;;;;;-2.69;100.00;98124.51;110350;1241;71104;-61
2024/02/17 03:33:09;;;;;;;;;;;;;;;-2.69;100.00;98121.95;110470;1241;69807;-61
2024/02/17 03:35:39;;;;;;;;;;;;;;;-2.71;100.00;98120.27;110324;1241;69807;-61
2024/02/17 03:38:08;;;;;;;;;;;;;;;-2.71;100.00;98119.59;110362;1241;59748;-61
2024/02/17 03:40:37;;;;;;;;;;;;;;;-2.69;100.00;98124.84;110377;1241;59694;-61
2024/02/17 03:43:05;;;;;;;;;;;;;;;-2.66;100.00;98129.61;110348;1240;71342;-61
2024/02/17 03:45:36;;;;;;;;;;;;;;;-2.64;100.00;98132.83;110428;1241;69735;-61
2024/02/17 03:48:05;;;;;;;;;;;;;;;-2.62;100.00;98133.84;110367;1241;68487;-61
2024/02/17 03:50:34;;;;;;;;;;;;;;;-2.65;100.00;98130.27;110379;1241;59686;-61
2024/02/17 03:53:02;;;;;;;;;;;;;;;-2.68;100.00;98132.85;110458;1241;59724;-61
2024/02/17 03:55:31;;;;;;;;;;;;;;;-2.70;100.00;98130.31;110419;1241;71076;-61
2024/02/17 03:58:00;;;;;;;;;;;;;;;-2.71;100.00;98131.02;110432;1240;69025;-61
2024/02/17 04:00:28;;;;;;;;;;;;;;;-2.71;100.00;98128.28;110412;1238;69972;-61
2024/02/17 04:02:57;;;;;;;;;;;;;;;-2.73;100.00;98128.46;110357;1241;59831;-61
2024/02/17 04:05:26;;;;;;;;;;;;;;;-2.74;100.00;98130.35;110395;1242;59694;-61
2024/02/17 04:07:55;;;;;;;;;;;;;;;-2.76;100.00;98129.88;110374;1241;70425;-61
2024/02/17 04:10:24;;;;;;;;;;;;;;;-2.77;100.00;98133.11;110497;1240;69435;-61
2024/02/17 04:12:53;;;;;;;;;;;;;;;-2.79;100.00;98135.00;110333;1241;69232;-61
2024/02/17 04:15:22;;;;;;;;;;;;;;;-2.79;100.00;98138.25;110397;1238;59697;-61
2024/02/17 04:17:53;;;;;;;;;;;;;;;-2.81;100.00;98134.17;110417;1241;59659;-61
2024/02/17 04:20:23;;;;;;;;;;;;;;;-2.80;100.00;98132.45;110431;1238;71693;-61
2024/02/17 04:22:52;;;;;;;;;;;;;;;-2.80;100.00;98135.52;110425;1241;68722;-61
2024/02/17 04:25:21;;;;;;;;;;;;;;;-2.80;100.00;98135.52;110359;1238;69715;-60
2024/02/17 04:27:49;;;;;;;;;;;;;;;-2.82;100.00;98138.27;110373;1240;59735;-61
2024/02/17 04:30:18;;;;;;;;;;;;;;;-2.87;100.00;98140.52;110427;1241;59691;-61
2024/02/17 04:32:47;;;;;;;;;;;;;;;-2.92;100.00;98143.64;110341;1240;71889;-61
2024/02/17 04:35:15;;;;;;;;;;;;;;;-2.95;100.00;98145.52;110365;1241;69663;-61
2024/02/17 04:37:45;;;;;;;;;;;;;;;-2.99;100.00;98146.59;110400;1241;70084;-61
2024/02/17 04:40:14;;;;;;;;;;;;;;;-3.03;100.00;98148.66;110420;1242;59696;-61
2024/02/17 04:42:43;;;;;;;;;;;;;;;-3.05;100.00;98153.96;110376;1241;59661;-61
2024/02/17 04:45:12;;;;;;;;;;;;;;;-3.06;100.00;98154.31;110378;1241;71213;-61
2024/02/17 04:47:41;;;;;;;;;;;;;;;-3.06;100.00;98151.23;110399;1242;68014;-60
2024/02/17 04:50:14;;;;;;;;;;;;;;;-3.05;100.00;98153.63;110444;1241;69259;-60
2024/02/17 04:52:42;;;;;;;;;;;;;;;-3.02;100.00;98159.57;110342;1244;59741;-60
2024/02/17 04:55:11;;;;;;;;;;;;;;;-3.01;100.00;98157.34;110398;1241;59705;-60
2024/02/17 04:57:40;;;;;;;;;;;;;;;-3.00;100.00;98158.02;110344;1242;71230;-60
2024/02/17 05:00:09;;;;;;;;;;;;;;;-2.96;100.00;98157.83;110468;1239;69216;-61
2024/02/17 05:02:38;;;;;;;;;;;;;;;-2.92;100.00;98160.16;110413;1241;69868;-60
2024/02/17 05:05:07;;;;;;;;;;;;;;;-2.92;100.00;98162.56;110466;1238;59743;-61
2024/02/17 05:07:35;;;;;;;;;;;;;;;-2.94;100.00;98165.14;110438;1240;59650;-60
2024/02/17 05:10:04;;;;;;;;;;;;;;;-2.93;100.00;98165.14;110408;1238;72007;-61
2024/02/17 05:12:33;;;;;;;;;;;;;;;-2.93;100.00;98172.45;110417;1241;69924;-61
2024/02/17 05:15:02;;;;;;;;;;;;;;;-2.94;100.00;98171.45;110372;1238;69257;-60
2024/02/17 05:17:31;;;;;;;;;;;;;;;-2.96;100.00;98171.98;110493;1240;59637;-61
2024/02/17 05:20:00;;;;;;;;;;;;;;;-2.97;100.00;98173.50;110499;1241;59683;-60
2024/02/17 05:22:29;;;;;;;;;;;;;;;-2.97;100.00;98180.16;110394;1238;71924;-60
2024/02/17 05:24:58;;;;;;;;;;;;;;;-2.96;100.00;98176.40;110387;1238;69268;-61
2024/02/17 05:27:26;;;;;;;;;;;;;;;-2.96;100.00;98177.26;110579;1241;69256;-60
2024/02/17 05:29:55;;;;;;;;;;;;;;;-2.96;100.00;98179.81;110443;1242;59741;-61
2024/02/17 05:32:24;;;;;;;;;;;;;;;-2.96;100.00;98181.35;110405;1239;59657;-61
2024/02/17 05:34:53;;;;;;;;;;;;;;;-2.96;100.00;98181.02;110475;1238;72002;-61
2024/02/17 05:37:24;;;;;;;;;;;;;;;-2.95;100.00;98183.58;110326;1242;68292;-60
2024/02/17 05:39:54;;;;;;;;;;;;;;;-2.95;100.00;98189.38;110360;1241;69130;-60
2024/02/17 05:42:23;;;;;;;;;;;;;;;-2.94;100.00;98192.42;110377;1241;59755;-61
2024/02/17 05:44:52;;;;;;;;;;;;;;;-2.92;100.00;98191.39;110366;1241;59737;-60
2024/02/17 05:47:20;;;;;;;;;;;;;;;-2.93;100.00;98197.53;110393;1240;71333;-60
2024/02/17 05:49:49;;;;;;;;;;;;;;;-2.92;100.00;98201.61;110452;1240;68709;-60
2024/02/17 05:52:19;;;;;;;;;;;;;;;-2.90;100.00;98203.16;110352;1244;69870;-60
2024/02/17 05:54:47;;;;;;;;;;;;;;;-2.87;100.00;98205.52;110339;1241;60108;-60
2024/02/17 05:57:16;;;;;;;;;;;;;;;-2.85;100.00;98211.31;110524;1241;59662;-60
2024/02/17 05:59:45;;;;;;;;;;;;;;;-2.81;100.00;98212.98;110404;1241;71899;-60
2024/02/17 06:02:14;;;;;;;;;;;;;;;-2.79;100.00;98217.41;110424;1240;69216;-61
2024/02/17 06:04:43;;;;;;;;;;;;;;;-2.75;100.00;98218.23;110487;1238;68482;-60
2024/02/17 06:07:12;;;;;;;;;;;;;;;-2.71;100.00;98223.15;110377;1241;59724;-60
2024/02/17 06:09:41;;;;;;;;;;;;;;;-2.66;100.00;98224.98;110573;1241;59711;-61
2024/02/17 06:12:09;;;;;;;;;;;;;;;-2.58;100.00;98233.98;110527;1238;71363;-61
2024/02/17 06:14:38;;;;;;;;;;;;;;;-2.51;100.00;98235.81;110424;1241;68565;-61
2024/02/17 06:17:07;;;;;;;;;;;;;;;-2.46;100.00;98240.38;110125;1240;546966;-61
2024/02/17 06:22:24;;;;;;;;;;;;;;;-2.31;100.00;98247.77;110414;1241;59681;-61
2024/02/17 06:24:53;;;;;;;;;;;;;;;-2.24;100.00;98246.52;110465;1240;71325;-61
2024/02/17 06:27:22;;;;;;;;;;;;;;;-2.16;100.00;98245.42;110421;1241;68466;-61
2024/02/17 06:29:50;;;;;;;;;;;;;;;-2.07;100.00;98251.14;110378;1240;69226;-61
2024/02/17 06:32:20;;;;;;;;;;;;;;;-1.95;100.00;98250.02;110351;1242;60053;-61
2024/02/17 06:34:49;;;;;;;;;;;;;;;-1.87;100.00;98246.02;110423;1241;59752;-61
2024/02/17 06:37:19;;;;;;;;;;;;;;;-1.79;100.00;98244.20;110418;1238;71073;-61
2024/02/17 06:39:48;;;;;;;;;;;;;;;-1.69;100.00;98252.33;110344;1241;69764;-61
2024/02/17 06:42:17;;;;;;;;;;;;;;;-1.53;100.00;98255.73;110339;1238;69074;-61
2024/02/17 06:44:46;;;;;;;;;;;;;;;-1.17;100.00;98255.80;110347;1240;59748;-61
2024/02/17 06:47:15;;;;;;;;;;;;;;;-0.64;100.00;98255.27;110402;1241;59703;-62
2024/02/17 06:49:44;;;;;;;;;;;;;;;-0.15;100.00;98249.89;110435;1238;71267;-61
2024/02/17 06:52:12;;;;;;;;;;;;;;;0.30;100.00;98253.89;110498;1238;69035;-62
2024/02/17 06:54:41;;;;;;;;;;;;;;;0.80;100.00;98256.36;110423;1241;69741;-62
2024/02/17 06:57:10;;;;;;;;;;;;;;;1.37;100.00;98255.49;110398;1242;59678;-62
2024/02/17 06:59:39;;;;;;;;;;;;;;;1.97;100.00;98253.90;110437;1239;59704;-62
2024/02/17 07:02:08;;;;;;;;;;;;;;;2.55;100.00;98263.73;110398;1238;70388;-62
2024/02/17 07:04:37;;;;;;;;;;;;;;;3.18;100.00;98269.88;110493;1241;70283;-62
2024/02/17 07:07:06;;;;;;;;;;;;;;;3.75;100.00;98265.73;110355;1238;69050;-61
2024/02/17 07:09:38;;;;;;;;;;;;;;;4.19;100.00;98262.71;110432;1241;59749;-62
2024/02/17 07:12:07;;;;;;;;;;;;;;;4.64;100.00;98265.15;110456;1241;59637;-63
2024/02/17 07:14:37;;;;;;;;;;;;;;;5.00;100.00;98267.98;110419;1238;71871;-60
2024/02/17 07:17:06;;;;;;;;;;;;;;;5.17;99.97;98270.81;110367;1241;68505;-61
2024/02/17 07:19:35;;;;;;;;;;;;;;;5.46;98.98;98262.79;110407;1240;69864;-62
2024/02/17 07:22:08;;;;;;;;;;;;;;;5.78;93.26;98267.80;110350;1238;59750;-61
2024/02/17 07:24:36;;;;;;;;;;;;;;;5.86;91.51;98266.95;110374;1238;59689;-61
2024/02/17 07:27:05;;;;;;;;;;;;;;;6.39;94.48;98270.86;110396;1241;71688;-61
2024/02/17 07:29:37;;;;;;;;;;;;;;;6.59;89.03;98269.83;110374;1238;69816;-61
2024/02/17 07:32:06;;;;;;;;;;;;;;;6.73;86.20;98269.53;110409;1238;69233;-61
2024/02/17 07:34:36;;;;;;;;;;;;;;;6.91;85.26;98265.81;110367;1240;59738;-61
2024/02/17 07:37:05;;;;;;;;;;;;;;;7.06;83.60;98261.32;110445;1239;59679;-62
2024/02/17 07:39:35;;;;;;;;;;;;;;;7.54;81.02;98256.36;110387;1240;70908;-61
2024/02/17 07:42:08;;;;;;;;;;;;;;;8.31;81.90;98257.14;110493;1240;69343;-62
2024/02/17 07:44:40;;;;;;;;;;;;;;;8.58;76.73;98255.79;110447;1238;68119;-62
2024/02/17 07:47:09;;;;;;;;;;;;;;;9.01;73.52;98254.89;110520;1238;59690;-61
2024/02/17 07:49:38;;;;;;;;;;;;;;;8.94;72.17;98253.56;110460;1238;59798;-63
2024/02/17 07:52:09;;;;;;;;;;;;;;;8.60;73.60;98254.80;110428;1242;71884;-62
2024/02/17 07:54:38;;;;;;;;;;;;;;;8.98;74.36;98254.75;110418;1241;69703;-63
2024/02/17 07:57:08;;;;;;;;;;;;;;;9.26;72.00;98249.09;110432;1238;69109;-63
2024/02/17 07:59:40;;;;;;;;;;;;;;;9.73;70.70;98247.36;110442;1240;59737;-61
2024/02/17 08:02:08;;;;;;;;;;;;;;;9.92;70.32;98248.55;110414;1239;59744;-61
2024/02/17 08:04:38;;;;;;;;;;;;;;;10.04;68.11;98250.45;110397;1244;71308;-61
2024/02/17 08:07:07;;;;;;;;;;;;;;;10.20;68.36;98250.08;110451;1238;69860;-62
2024/02/17 08:09:35;;;;;;;;;;;;;;;9.96;67.23;98243.08;110442;1242;68977;-62
2024/02/17 08:12:04;;;;;;;;;;;;;;;10.38;66.28;98250.27;110282;1241;59748;-60
2024/02/17 08:14:33;;;;;;;;;;;;;;;10.26;66.12;98246.60;110377;1241;59646;-63
2024/02/17 08:17:02;;;;;;;;;;;;;;;10.36;65.32;98250.57;110402;1241;71204;-62
2024/02/17 08:19:31;;;;;;;;;;;;;;;10.31;65.57;98252.58;110354;1238;68324;-61
2024/02/17 08:22:01;;;;;;;;;;;;;;;10.71;63.47;98253.90;110404;1238;69962;-61
2024/02/17 08:24:29;;;;;;;;;;;;;;;10.75;65.19;98254.33;110388;1241;59697;-61
2024/02/17 08:26:58;;;;;;;;;;;;;;;11.02;63.24;98254.61;110402;1238;59611;-61
2024/02/17 08:29:27;;;;;;;;;;;;;;;11.80;61.70;98249.74;110429;1238;70925;-61
2024/02/17 08:31:56;;;;;;;;;;;;;;;12.08;59.72;98249.17;110420;1240;69211;-62
2024/02/17 08:34:25;;;;;;;;;;;;;;;12.89;58.00;98246.65;110382;1240;69226;-61
2024/02/17 08:36:54;;;;;;;;;;;;;;;13.26;56.11;98244.80;110396;1240;59737;-63
2024/02/17 08:39:23;;;;;;;;;;;;;;;13.22;54.02;98244.86;110461;1238;59661;-61
2024/02/17 08:41:53;;;;;;;;;;;;;;;13.32;53.12;98246.65;110379;1242;71726;-62
2024/02/17 08:44:22;;;;;;;;;;;;;;;13.92;53.59;98241.80;110434;1238;69552;-62
2024/02/17 08:46:51;;;;;;;;;;;;;;;13.90;51.90;98245.25;110506;1238;69740;-62
2024/02/17 08:49:20;;;;;;;;;;;;;;;13.92;51.98;98244.41;110473;1242;59725;-62
2024/02/17 08:51:49;;;;;;;;;;;;;;;12.89;54.28;98245.08;110538;1240;59752;-62
2024/02/17 08:54:20;;;;;;;;;;;;;;;12.87;54.32;98249.44;110448;1238;70353;-62
2024/02/17 08:56:48;;;;;;;;;;;;;;;13.19;54.38;98246.29;110512;1238;69707;-61
2024/02/17 08:59:17;;;;;;;;;;;;;;;13.97;52.43;98247.55;110513;1242;69226;-63
2024/02/17 09:01:45;;;;;;;;;;;;;;;13.67;52.36;98248.16;110472;1242;59700;-62
2024/02/17 09:04:14;;;;;;;;;;;;;;;13.95;52.02;98248.77;110498;1241;59655;-63
2024/02/17 09:06:43;;;;;;;;;;;;;;;13.98;50.59;98248.58;110478;1238;71283;-61
2024/02/17 09:09:13;;;;;;;;;;;;;;;13.68;51.82;98247.61;110473;1241;69575;-62
2024/02/17 09:11:41;;;;;;;;;;;;;;;14.65;50.15;98253.88;110416;1238;69905;-61
2024/02/17 09:14:10;;;;;;;;;;;;;;;14.18;50.37;98249.55;110410;1238;59770;-61
2024/02/17 09:16:39;;;;;;;;;;;;;;;14.75;49.59;98252.64;110417;1240;59678;-61
2024/02/17 09:19:08;;;;;;;;;;;;;;;15.34;47.65;98255.39;110420;1238;71232;-61
2024/02/17 09:21:37;;;;;;;;;;;;;;;15.10;48.33;98254.49;110402;1240;69860;-61
2024/02/17 09:24:06;;;;;;;;;;;;;;;15.95;45.84;98256.03;110417;1238;69408;-61
2024/02/17 09:26:36;;;;;;;;;;;;;;;15.36;47.42;98259.44;110410;1240;59663;-61
2024/02/17 09:29:05;;;;;;;;;;;;;;;16.16;45.01;98259.71;110424;1241;59676;-61
2024/02/17 09:31:34;;;;;;;;;;;;;;;15.93;45.04;98254.94;110403;1238;71189;-61
2024/02/17 09:34:03;;;;;;;;;;;;;;;16.63;44.26;98255.16;110386;1239;69150;-61
2024/02/17 09:36:32;;;;;;;;;;;;;;;16.86;42.84;98252.29;110484;1241;68756;-61
2024/02/17 09:39:01;;;;;;;;;;;;;;;16.77;43.12;98254.84;110447;1238;60201;-61
2024/02/17 09:41:31;;;;;;;;;;;;;;;16.38;43.70;98253.89;110374;1238;59669;-61
2024/02/17 09:44:00;;;;;;;;;;;;;;;16.36;43.09;98250.36;110344;1242;71335;-61
2024/02/17 09:46:30;;;;;;;;;;;;;;;16.96;42.60;98252.35;110376;1240;70265;-61
2024/02/17 09:49:00;;;;;;;;;;;;;;;17.47;42.63;98251.41;110365;1241;69849;-61
2024/02/17 09:51:29;;;;;;;;;;;;;;;17.68;41.06;98247.17;110384;1240;59740;-61
2024/02/17 09:53:58;;;;;;;;;;;;;;;17.32;40.98;98245.73;110415;1241;59656;-62
2024/02/17 09:56:27;;;;;;;;;;;;;;;16.99;41.67;98246.30;110513;1238;71183;-62
2024/02/17 09:58:56;;;;;;;;;;;;;;;17.61;40.96;98243.19;110359;1238;68197;-61
2024/02/17 10:01:27;;;;;;;;;;;;;;;17.60;40.43;98240.98;110350;1240;69239;-62
2024/02/17 10:03:57;;;;;;;;;;;;;;;17.30;41.34;98239.31;110379;1241;59661;-63
2024/02/17 10:06:25;;;;;;;;;;;;;;;18.04;40.44;98236.02;110395;1241;59728;-63
2024/02/17 10:08:56;;;;;;;;;;;;;;;18.12;39.17;98234.21;110450;1248;72312;-61
2024/02/17 10:11:25;;;;;;;;;;;;;;;18.25;39.45;98234.80;110358;1240;69879;-61
2024/02/17 10:13:59;;;;;;;;;;;;;;;18.30;38.92;98234.01;110343;1241;69170;-61
2024/02/17 10:16:28;;;;;;;;;;;;;;;17.98;39.35;98227.36;110352;1239;59764;-61
2024/02/17 10:19:02;;;;;;;;;;;;;;;18.25;37.53;98225.11;110415;1238;59684;-61
2024/02/17 10:21:31;;;;;;;;;;;;;;;17.78;37.65;98220.55;110502;1241;71964;-61
2024/02/17 10:24:02;;;;;;;;;;;;;;;17.78;38.14;98219.84;110372;1238;69752;-61
2024/02/17 10:26:32;;;;;;;;;;;;;;;17.72;39.14;98221.03;110365;1241;69009;-61
2024/02/17 10:29:01;;;;;;;;;;;;;;;17.11;40.17;98215.13;110562;1240;59702;-62
2024/02/17 10:31:30;;;;;;;;;;;;;;;18.15;39.06;98213.83;110372;1239;59743;-62
2024/02/17 10:33:59;;;;;;;;;;;;;;;18.80;38.31;98213.48;110433;1240;70913;-61
2024/02/17 10:36:28;;;;;;;;;;;;;;;19.35;36.52;98208.83;110399;1238;69192;-61
2024/02/17 10:39:00;;;;;;;;;;;;;;;19.05;36.06;98205.13;110360;1241;68105;-60
2024/02/17 10:41:30;;;;;;;;;;;;;;;18.79;35.90;98204.06;110345;1242;59666;-61
2024/02/17 10:43:59;;;;;;;;;;;;;;;18.52;36.50;98203.72;110410;1238;59664;-61
2024/02/17 10:46:28;;;;;;;;;;;;;;;18.19;37.55;98198.87;110372;1240;71442;-61
2024/02/17 10:49:03;;;;;;;;;;;;;;;18.52;36.98;98200.39;110406;1241;69200;-62
2024/02/17 10:51:35;;;;;;;;;;;;;;;18.25;38.07;98199.04;110391;1241;69728;-62
2024/02/17 10:54:07;;;;;;;;;;;;;;;18.26;37.49;98200.14;110400;1241;59686;-62
2024/02/17 10:56:36;;;;;;;;;;;;;;;18.90;36.30;98199.56;110403;1240;59681;-61
2024/02/17 10:59:06;;;;;;;;;;;;;;;18.76;36.83;98199.41;110362;1238;71330;-61
2024/02/17 11:01:35;;;;;;;;;;;;;;;18.45;36.94;98198.76;110437;1241;69716;-61
2024/02/17 11:04:04;;;;;;;;;;;;;;;18.34;37.05;98196.23;110370;1241;68408;-61
2024/02/17 11:06:34;;;;;;;;;;;;;;;18.16;36.78;98193.98;110373;1241;59657;-61
2024/02/17 11:09:03;;;;;;;;;;;;;;;19.10;35.85;98192.80;110374;1241;59682;-59
2024/02/17 11:11:33;;;;;;;;;;;;;;;19.44;35.77;98189.95;110382;1238;72016;-62
2024/02/17 11:14:20;;;;;;;;;;;;;;;19.58;34.57;98186.23;110404;1241;69095;-61
2024/02/17 11:16:51;;;;;;;;;;;;;;;20.21;34.49;98185.36;110432;1238;69282;-61
2024/02/17 11:19:22;;;;;;;;;;;;;;;20.00;34.02;98180.70;110371;1240;60165;-62
2024/02/17 11:22:07;;;;;;;;;;;;;;;20.85;33.47;98182.44;110370;1240;59708;-63
2024/02/17 11:24:37;;;;;;;;;;;;;;;21.07;32.32;98180.86;110446;1238;72089;-62
2024/02/17 11:27:08;;;;;;;;;;;;;;;21.06;31.84;98179.85;110272;1242;69830;-61
2024/02/17 11:29:38;;;;;;;;;;;;;;;21.01;32.95;98180.43;110393;1242;68544;-61
2024/02/17 11:32:08;;;;;;;;;;;;;;;21.50;32.32;98177.75;110439;1238;59790;-61
2024/02/17 11:34:37;;;;;;;;;;;;;;;22.18;31.67;98176.21;110401;1238;59666;-61
2024/02/17 11:37:07;;;;;;;;;;;;;;;22.47;30.36;98175.66;110395;1238;71852;-61
2024/02/17 11:39:37;;;;;;;;;;;;;;;22.11;30.78;98175.34;110444;1238;69940;-61
2024/02/17 11:42:06;;;;;;;;;;;;;;;22.21;30.61;98170.54;110484;1238;69215;-61
2024/02/17 11:44:38;;;;;;;;;;;;;;;22.09;30.73;98165.42;110396;1241;59666;-62
2024/02/17 11:47:06;;;;;;;;;;;;;;;22.88;30.74;98168.33;110358;1242;59689;-61
2024/02/17 11:49:35;;;;;;;;;;;;;;;23.25;29.54;98162.60;110366;1241;71955;-61
2024/02/17 11:52:08;;;;;;;;;;;;;;;23.10;29.14;98158.20;110435;1238;68539;-61
2024/02/17 11:54:38;;;;;;;;;;;;;;;23.22;29.12;98154.62;110220;1238;69945;-61
2024/02/17 11:57:07;;;;;;;;;;;;;;;23.04;29.07;98152.30;110368;1241;59691;-61
2024/02/17 11:59:38;;;;;;;;;;;;;;;20.25;31.45;98153.05;110366;1241;59641;-63
2024/02/17 12:02:10;;;;;;;;;;;;;;;21.64;30.65;98158.42;110363;1240;71534;-61
2024/02/17 12:04:40;;;;;;;;;;;;;;;21.96;29.40;98159.93;110457;1240;69100;-61
2024/02/17 12:07:09;;;;;;;;;;;;;;;22.62;29.27;98159.52;110384;1238;68970;-62
2024/02/17 12:09:37;;;;;;;;;;;;;;;23.32;29.08;98153.42;110360;1238;59748;-62
2024/02/17 12:12:06;;;;;;;;;;;;;;;23.84;28.57;98148.57;110367;1242;59658;-62
2024/02/17 12:14:35;;;;;;;;;;;;;;;24.20;27.37;98146.46;110394;1238;71337;-62
2024/02/17 12:17:04;;;;;;;;;;;;;;;24.05;27.25;98143.90;110370;1242;68758;-62
2024/02/17 12:19:33;;;;;;;;;;;;;;;23.09;27.51;98143.56;110381;1240;69481;-63
2024/02/17 12:22:02;;;;;;;;;;;;;;;23.32;27.97;98145.92;110399;1240;59742;-62
2024/02/17 12:24:32;;;;;;;;;;;;;;;23.35;27.63;98141.21;110402;1238;60112;-62
2024/02/17 12:27:01;;;;;;;;;;;;;;;23.75;27.34;98141.86;110462;1240;70997;-61
2024/02/17 12:29:30;;;;;;;;;;;;;;;22.71;28.51;98143.56;110392;1241;69823;-62
2024/02/17 12:31:58;;;;;;;;;;;;;;;23.51;27.86;98137.04;110427;1240;70429;-62
2024/02/17 12:34:29;;;;;;;;;;;;;;;23.28;27.72;98134.88;110444;1245;59718;-62
2024/02/17 12:37:03;;;;;;;;;;;;;;;22.94;27.37;98138.56;110495;1238;59643;-62
2024/02/17 12:39:33;;;;;;;;;;;;;;;23.14;28.17;98132.83;110456;1241;71201;-62
2024/02/17 12:42:03;;;;;;;;;;;;;;;22.66;28.69;98138.76;110452;1240;69923;-62
2024/02/17 12:44:31;;;;;;;;;;;;;;;21.88;29.19;98134.48;110390;1240;69908;-61
2024/02/17 12:47:11;;;;;;;;;;;;;;;22.32;29.00;98139.00;110430;1245;59715;-62